sensor_id;sensor_type;location;lat;lon;timestamp;P1;durP1;ratioP1;P2;durP2;ratioP2
73697;SDS011;62004;42.566;23.164;2023-04-01T00:02:21;937.87;;;869.63;;
73697;SDS011;62004;42.566;23.164;2023-04-01T00:04:46;937.10;;;867.77;;
73697;SDS011;62004;42.566;23.164;2023-04-01T00:07:11;919.33;;;850.10;;
73697;SDS011;62004;42.566;23.164;2023-04-01T00:09:37;931.43;;;863.47;;
73697;SDS011;62004;42.566;23.164;2023-04-01T00:12:02;934.67;;;866.83;;
73697;SDS011;62004;42.566;23.164;2023-04-01T00:14:27;924.22;;;855.40;;
73697;SDS011;62004;42.566;23.164;2023-04-01T00:16:53;940.47;;;870.63;;
73697;SDS011;62004;42.566;23.164;2023-04-01T00:19:19;938.27;;;869.63;;
73697;SDS011;62004;42.566;23.164;2023-04-01T00:21:44;925.13;;;857.87;;
73697;SDS011;62004;42.566;23.164;2023-04-01T00:24:09;945.27;;;875.27;;
73697;SDS011;62004;42.566;23.164;2023-04-01T00:26:35;944.63;;;874.63;;
73697;SDS011;62004;42.566;23.164;2023-04-01T00:29:00;937.97;;;869.60;;
73697;SDS011;62004;42.566;23.164;2023-04-01T00:31:26;934.60;;;865.88;;
73697;SDS011;62004;42.566;23.164;2023-04-01T00:33:51;942.33;;;872.10;;
73697;SDS011;62004;42.566;23.164;2023-04-01T00:36:17;937.27;;;867.77;;
73697;SDS011;62004;42.566;23.164;2023-04-01T00:38:42;933.13;;;865.10;;
73697;SDS011;62004;42.566;23.164;2023-04-01T00:41:08;934.53;;;866.60;;
73697;SDS011;62004;42.566;23.164;2023-04-01T00:43:34;937.80;;;868.33;;
73697;SDS011;62004;42.566;23.164;2023-04-01T00:46:00;939.45;;;870.17;;
73697;SDS011;62004;42.566;23.164;2023-04-01T00:48:33;945.30;;;875.33;;
73697;SDS011;62004;42.566;23.164;2023-04-01T00:51:15;923.53;;;855.25;;
73697;SDS011;62004;42.566;23.164;2023-04-01T00:53:43;944.00;;;874.38;;
73697;SDS011;62004;42.566;23.164;2023-04-01T00:56:11;928.90;;;861.25;;
73697;SDS011;62004;42.566;23.164;2023-04-01T00:58:38;931.00;;;863.00;;
73697;SDS011;62004;42.566;23.164;2023-04-01T01:01:05;929.25;;;860.38;;
73697;SDS011;62004;42.566;23.164;2023-04-01T01:03:31;941.28;;;872.83;;
73697;SDS011;62004;42.566;23.164;2023-04-01T01:09:17;941.95;;;873.63;;
73697;SDS011;62004;42.566;23.164;2023-04-01T01:11:29;931.58;;;864.45;;
73697;SDS011;62004;42.566;23.164;2023-04-01T01:14:01;933.88;;;865.63;;
73697;SDS011;62004;42.566;23.164;2023-04-01T01:16:32;929.08;;;862.28;;
73697;SDS011;62004;42.566;23.164;2023-04-01T01:34:27;928.95;;;862.13;;
73697;SDS011;62004;42.566;23.164;2023-04-01T01:36:57;931.55;;;863.92;;
73697;SDS011;62004;42.566;23.164;2023-04-01T01:39:24;936.53;;;869.75;;
73697;SDS011;62004;42.566;23.164;2023-04-01T01:44:17;940.72;;;873.42;;
73697;SDS011;62004;42.566;23.164;2023-04-01T01:46:43;934.95;;;866.95;;
73697;SDS011;62004;42.566;23.164;2023-04-01T01:49:10;933.05;;;866.17;;
73697;SDS011;62004;42.566;23.164;2023-04-01T01:51:36;939.42;;;871.38;;
73697;SDS011;62004;42.566;23.164;2023-04-01T01:54:01;932.90;;;866.30;;
73697;SDS011;62004;42.566;23.164;2023-04-01T01:56:27;923.85;;;856.17;;
73697;SDS011;62004;42.566;23.164;2023-04-01T01:58:58;930.17;;;862.03;;
73697;SDS011;62004;42.566;23.164;2023-04-01T02:01:24;934.90;;;866.63;;
73697;SDS011;62004;42.566;23.164;2023-04-01T02:03:51;938.75;;;870.15;;
73697;SDS011;62004;42.566;23.164;2023-04-01T02:06:17;945.78;;;876.05;;
73697;SDS011;62004;42.566;23.164;2023-04-01T02:08:44;932.65;;;865.00;;
73697;SDS011;62004;42.566;23.164;2023-04-01T02:11:12;940.70;;;872.70;;
73697;SDS011;62004;42.566;23.164;2023-04-01T02:16:04;933.90;;;866.73;;
73697;SDS011;62004;42.566;23.164;2023-04-01T02:18:32;927.53;;;858.55;;
73697;SDS011;62004;42.566;23.164;2023-04-01T02:20:58;936.47;;;868.22;;
73697;SDS011;62004;42.566;23.164;2023-04-01T02:23:24;938.17;;;871.10;;
73697;SDS011;62004;42.566;23.164;2023-04-01T02:25:50;929.65;;;862.10;;
73697;SDS011;62004;42.566;23.164;2023-04-01T02:28:16;947.58;;;880.25;;
73697;SDS011;62004;42.566;23.164;2023-04-01T02:30:44;931.13;;;863.78;;
73697;SDS011;62004;42.566;23.164;2023-04-01T02:33:10;933.38;;;865.78;;
73697;SDS011;62004;42.566;23.164;2023-04-01T02:35:35;937.45;;;869.97;;
73697;SDS011;62004;42.566;23.164;2023-04-01T02:38:02;939.28;;;871.05;;
73697;SDS011;62004;42.566;23.164;2023-04-01T02:40:27;923.50;;;855.10;;
73697;SDS011;62004;42.566;23.164;2023-04-01T02:42:52;930.67;;;863.30;;
73697;SDS011;62004;42.566;23.164;2023-04-01T02:45:18;938.60;;;870.87;;
73697;SDS011;62004;42.566;23.164;2023-04-01T02:47:43;928.35;;;862.55;;
73697;SDS011;62004;42.566;23.164;2023-04-01T02:50:08;930.30;;;863.27;;
73697;SDS011;62004;42.566;23.164;2023-04-01T02:52:34;936.85;;;869.38;;
73697;SDS011;62004;42.566;23.164;2023-04-01T02:55:00;927.40;;;861.57;;
73697;SDS011;62004;42.566;23.164;2023-04-01T02:57:25;930.90;;;864.67;;
73697;SDS011;62004;42.566;23.164;2023-04-01T02:59:50;934.57;;;866.43;;
73697;SDS011;62004;42.566;23.164;2023-04-01T03:02:15;923.43;;;856.73;;
73697;SDS011;62004;42.566;23.164;2023-04-01T03:04:41;939.60;;;871.50;;
73697;SDS011;62004;42.566;23.164;2023-04-01T03:07:06;940.40;;;872.37;;
73697;SDS011;62004;42.566;23.164;2023-04-01T03:09:32;937.63;;;870.00;;
73697;SDS011;62004;42.566;23.164;2023-04-01T03:11:57;933.13;;;866.47;;
73697;SDS011;62004;42.566;23.164;2023-04-01T03:14:22;936.60;;;868.80;;
73697;SDS011;62004;42.566;23.164;2023-04-01T03:16:47;933.80;;;867.47;;
73697;SDS011;62004;42.566;23.164;2023-04-01T03:19:13;911.47;;;845.20;;
73697;SDS011;62004;42.566;23.164;2023-04-01T03:21:38;933.92;;;867.63;;
73697;SDS011;62004;42.566;23.164;2023-04-01T03:24:04;932.30;;;866.05;;
73697;SDS011;62004;42.566;23.164;2023-04-01T03:26:29;935.50;;;868.33;;
73697;SDS011;62004;42.566;23.164;2023-04-01T03:28:55;922.63;;;857.35;;
73697;SDS011;62004;42.566;23.164;2023-04-01T03:31:20;940.63;;;873.08;;
73697;SDS011;62004;42.566;23.164;2023-04-01T03:33:46;938.67;;;871.17;;
73697;SDS011;62004;42.566;23.164;2023-04-01T03:36:11;932.50;;;865.93;;
73697;SDS011;62004;42.566;23.164;2023-04-01T03:38:37;921.75;;;856.53;;
73697;SDS011;62004;42.566;23.164;2023-04-01T03:41:02;922.53;;;856.13;;
73697;SDS011;62004;42.566;23.164;2023-04-01T03:43:28;931.72;;;865.30;;
73697;SDS011;62004;42.566;23.164;2023-04-01T03:45:53;934.07;;;868.17;;
73697;SDS011;62004;42.566;23.164;2023-04-01T03:48:19;934.72;;;868.88;;
73697;SDS011;62004;42.566;23.164;2023-04-01T03:50:45;940.60;;;874.50;;
73697;SDS011;62004;42.566;23.164;2023-04-01T03:53:10;926.57;;;860.73;;
73697;SDS011;62004;42.566;23.164;2023-04-01T03:55:36;931.10;;;865.97;;
73697;SDS011;62004;42.566;23.164;2023-04-01T03:58:02;929.67;;;864.80;;
73697;SDS011;62004;42.566;23.164;2023-04-01T04:00:28;928.03;;;863.15;;
73697;SDS011;62004;42.566;23.164;2023-04-01T04:02:53;925.40;;;860.22;;
73697;SDS011;62004;42.566;23.164;2023-04-01T04:05:19;913.90;;;850.47;;
73697;SDS011;62004;42.566;23.164;2023-04-01T04:07:45;931.33;;;866.33;;
73697;SDS011;62004;42.566;23.164;2023-04-01T04:10:10;923.60;;;859.33;;
73697;SDS011;62004;42.566;23.164;2023-04-01T04:12:35;920.63;;;856.73;;
73697;SDS011;62004;42.566;23.164;2023-04-01T04:15:00;932.73;;;866.67;;
73697;SDS011;62004;42.566;23.164;2023-04-01T04:17:26;930.10;;;864.17;;
73697;SDS011;62004;42.566;23.164;2023-04-01T04:19:51;926.03;;;860.33;;
73697;SDS011;62004;42.566;23.164;2023-04-01T04:22:16;929.77;;;863.47;;
73697;SDS011;62004;42.566;23.164;2023-04-01T04:24:41;909.33;;;844.43;;
73697;SDS011;62004;42.566;23.164;2023-04-01T04:27:07;934.33;;;867.57;;
73697;SDS011;62004;42.566;23.164;2023-04-01T04:29:32;926.10;;;861.13;;
73697;SDS011;62004;42.566;23.164;2023-04-01T04:31:57;928.37;;;863.37;;
73697;SDS011;62004;42.566;23.164;2023-04-01T04:34:22;919.07;;;854.13;;
73697;SDS011;62004;42.566;23.164;2023-04-01T04:36:48;926.67;;;861.03;;
73697;SDS011;62004;42.566;23.164;2023-04-01T04:39:13;929.45;;;862.50;;
73697;SDS011;62004;42.566;23.164;2023-04-01T04:41:39;929.72;;;863.70;;
73697;SDS011;62004;42.566;23.164;2023-04-01T04:44:04;931.73;;;866.20;;
73697;SDS011;62004;42.566;23.164;2023-04-01T04:46:30;935.00;;;868.72;;
73697;SDS011;62004;42.566;23.164;2023-04-01T04:48:55;932.43;;;866.47;;
73697;SDS011;62004;42.566;23.164;2023-04-01T04:51:21;920.80;;;855.53;;
73697;SDS011;62004;42.566;23.164;2023-04-01T04:53:46;930.72;;;864.60;;
73697;SDS011;62004;42.566;23.164;2023-04-01T04:56:12;937.70;;;870.00;;
73697;SDS011;62004;42.566;23.164;2023-04-01T04:58:37;938.87;;;871.80;;
73697;SDS011;62004;42.566;23.164;2023-04-01T05:01:10;932.47;;;866.35;;
73697;SDS011;62004;42.566;23.164;2023-04-01T05:03:35;932.00;;;865.13;;
73697;SDS011;62004;42.566;23.164;2023-04-01T05:06:01;933.17;;;866.30;;
73697;SDS011;62004;42.566;23.164;2023-04-01T05:08:26;929.97;;;864.50;;
73697;SDS011;62004;42.566;23.164;2023-04-01T05:10:51;918.07;;;853.33;;
73697;SDS011;62004;42.566;23.164;2023-04-01T05:13:17;928.10;;;861.53;;
73697;SDS011;62004;42.566;23.164;2023-04-01T05:15:42;927.27;;;861.40;;
73697;SDS011;62004;42.566;23.164;2023-04-01T05:18:07;927.27;;;862.00;;
73697;SDS011;62004;42.566;23.164;2023-04-01T05:20:32;935.30;;;868.80;;
73697;SDS011;62004;42.566;23.164;2023-04-01T05:22:58;927.20;;;860.97;;
73697;SDS011;62004;42.566;23.164;2023-04-01T05:25:24;917.42;;;851.30;;
73697;SDS011;62004;42.566;23.164;2023-04-01T05:27:49;926.13;;;861.10;;
73697;SDS011;62004;42.566;23.164;2023-04-01T05:30:14;933.50;;;867.00;;
73697;SDS011;62004;42.566;23.164;2023-04-01T05:32:40;935.87;;;869.00;;
73697;SDS011;62004;42.566;23.164;2023-04-01T05:35:05;944.83;;;874.83;;
73697;SDS011;62004;42.566;23.164;2023-04-01T05:37:32;953.58;;;880.95;;
73697;SDS011;62004;42.566;23.164;2023-04-01T05:39:58;932.78;;;858.80;;
73697;SDS011;62004;42.566;23.164;2023-04-01T05:42:23;964.38;;;886.95;;
73697;SDS011;62004;42.566;23.164;2023-04-01T05:44:49;966.35;;;888.72;;
73697;SDS011;62004;42.566;23.164;2023-04-01T05:47:14;958.60;;;878.65;;
73697;SDS011;62004;42.566;23.164;2023-04-01T05:49:39;972.67;;;892.23;;
73697;SDS011;62004;42.566;23.164;2023-04-01T05:52:04;965.37;;;885.40;;
73697;SDS011;62004;42.566;23.164;2023-04-01T05:54:30;961.73;;;878.87;;
73697;SDS011;62004;42.566;23.164;2023-04-01T05:56:55;975.17;;;891.77;;
73697;SDS011;62004;42.566;23.164;2023-04-01T05:59:20;982.57;;;898.27;;
73697;SDS011;62004;42.566;23.164;2023-04-01T06:01:45;988.73;;;901.60;;
73697;SDS011;62004;42.566;23.164;2023-04-01T06:04:13;990.60;;;903.80;;
73697;SDS011;62004;42.566;23.164;2023-04-01T06:06:38;985.28;;;896.67;;
73697;SDS011;62004;42.566;23.164;2023-04-01T06:09:12;972.67;;;888.40;;
73697;SDS011;62004;42.566;23.164;2023-04-01T06:12:05;984.97;;;900.50;;
73697;SDS011;62004;42.566;23.164;2023-04-01T06:24:54;955.17;;;876.53;;
73697;SDS011;62004;42.566;23.164;2023-04-01T06:27:41;951.30;;;875.05;;
73697;SDS011;62004;42.566;23.164;2023-04-01T06:32:49;939.97;;;863.80;;
73697;SDS011;62004;42.566;23.164;2023-04-01T06:35:19;948.30;;;873.08;;
73697;SDS011;62004;42.566;23.164;2023-04-01T06:40:21;956.07;;;878.77;;
73697;SDS011;62004;42.566;23.164;2023-04-01T06:42:51;966.17;;;888.35;;
73697;SDS011;62004;42.566;23.164;2023-04-01T06:45:25;945.83;;;870.67;;
73697;SDS011;62004;42.566;23.164;2023-04-01T06:50:36;955.28;;;880.20;;
73697;SDS011;62004;42.566;23.164;2023-04-01T06:53:24;944.28;;;868.53;;
73697;SDS011;62004;42.566;23.164;2023-04-01T06:55:52;928.92;;;853.78;;
73697;SDS011;62004;42.566;23.164;2023-04-01T06:58:22;952.10;;;876.90;;
73697;SDS011;62004;42.566;23.164;2023-04-01T07:00:49;924.42;;;850.60;;
73697;SDS011;62004;42.566;23.164;2023-04-01T07:06:04;948.42;;;874.10;;
73697;SDS011;62004;42.566;23.164;2023-04-01T07:08:31;942.00;;;869.28;;
73697;SDS011;62004;42.566;23.164;2023-04-01T07:11:00;939.72;;;867.30;;
73697;SDS011;62004;42.566;23.164;2023-04-01T07:13:34;934.30;;;859.40;;
73697;SDS011;62004;42.566;23.164;2023-04-01T07:18:50;940.00;;;866.78;;
73697;SDS011;62004;42.566;23.164;2023-04-01T07:22:21;961.65;;;886.95;;
73697;SDS011;62004;42.566;23.164;2023-04-01T07:24:16;935.83;;;861.65;;
73697;SDS011;62004;42.566;23.164;2023-04-01T07:26:44;950.72;;;876.10;;
73697;SDS011;62004;42.566;23.164;2023-04-01T07:29:10;939.70;;;867.23;;
73697;SDS011;62004;42.566;23.164;2023-04-01T07:34:23;936.65;;;864.08;;
73697;SDS011;62004;42.566;23.164;2023-04-01T07:42:01;942.90;;;869.42;;
73697;SDS011;62004;42.566;23.164;2023-04-01T07:57:21;946.23;;;871.87;;
73697;SDS011;62004;42.566;23.164;2023-04-01T08:00:09;948.60;;;873.80;;
73697;SDS011;62004;42.566;23.164;2023-04-01T08:05:27;943.92;;;868.70;;
73697;SDS011;62004;42.566;23.164;2023-04-01T08:07:59;953.80;;;880.03;;
73697;SDS011;62004;42.566;23.164;2023-04-01T08:20:48;953.17;;;878.83;;
73697;SDS011;62004;42.566;23.164;2023-04-01T08:23:16;962.83;;;886.45;;
73697;SDS011;62004;42.566;23.164;2023-04-01T08:28:19;952.15;;;877.10;;
73697;SDS011;62004;42.566;23.164;2023-04-01T08:30:51;956.13;;;879.55;;
73697;SDS011;62004;42.566;23.164;2023-04-01T08:33:24;953.35;;;877.97;;
73697;SDS011;62004;42.566;23.164;2023-04-01T08:41:30;954.58;;;877.30;;
73697;SDS011;62004;42.566;23.164;2023-04-01T08:51:33;970.80;;;890.78;;
73697;SDS011;62004;42.566;23.164;2023-04-01T08:54:30;950.60;;;869.53;;
73697;SDS011;62004;42.566;23.164;2023-04-01T08:59:30;974.33;;;893.55;;
73697;SDS011;62004;42.566;23.164;2023-04-01T09:30:28;965.65;;;885.53;;
73697;SDS011;62004;42.566;23.164;2023-04-01T09:35:23;956.70;;;876.77;;
73697;SDS011;62004;42.566;23.164;2023-04-01T10:11:54;949.13;;;870.75;;
73697;SDS011;62004;42.566;23.164;2023-04-01T10:25:29;960.92;;;881.28;;
73697;SDS011;62004;42.566;23.164;2023-04-01T11:04:18;962.60;;;877.10;;
73697;SDS011;62004;42.566;23.164;2023-04-01T11:09:44;974.03;;;890.83;;
73697;SDS011;62004;42.566;23.164;2023-04-01T11:25:48;967.90;;;886.20;;
73697;SDS011;62004;42.566;23.164;2023-04-01T11:35:55;962.45;;;882.35;;
73697;SDS011;62004;42.566;23.164;2023-04-01T11:46:19;940.63;;;867.03;;
73697;SDS011;62004;42.566;23.164;2023-04-01T11:56:26;930.60;;;859.87;;
73697;SDS011;62004;42.566;23.164;2023-04-01T11:58:58;939.58;;;868.90;;
73697;SDS011;62004;42.566;23.164;2023-04-01T12:01:34;934.67;;;864.25;;
73697;SDS011;62004;42.566;23.164;2023-04-01T12:11:51;932.22;;;862.35;;
73697;SDS011;62004;42.566;23.164;2023-04-01T12:14:27;920.70;;;851.05;;
73697;SDS011;62004;42.566;23.164;2023-04-01T12:22:08;918.10;;;851.83;;
73697;SDS011;62004;42.566;23.164;2023-04-01T12:32:40;928.93;;;862.73;;
73697;SDS011;62004;42.566;23.164;2023-04-01T12:35:23;921.83;;;855.78;;
73697;SDS011;62004;42.566;23.164;2023-04-01T12:38:14;909.75;;;843.63;;
73697;SDS011;62004;42.566;23.164;2023-04-01T12:45:49;921.35;;;854.70;;
73697;SDS011;62004;42.566;23.164;2023-04-01T12:53:22;904.57;;;837.67;;
73697;SDS011;62004;42.566;23.164;2023-04-01T12:55:51;919.45;;;853.10;;
73697;SDS011;62004;42.566;23.164;2023-04-01T12:58:37;917.10;;;850.75;;
73697;SDS011;62004;42.566;23.164;2023-04-01T13:08:43;908.90;;;845.00;;
73697;SDS011;62004;42.566;23.164;2023-04-01T13:13:50;915.28;;;852.22;;
73697;SDS011;62004;42.566;23.164;2023-04-01T13:16:33;906.25;;;842.30;;
73697;SDS011;62004;42.566;23.164;2023-04-01T13:19:09;907.25;;;841.72;;
73697;SDS011;62004;42.566;23.164;2023-04-01T13:24:12;916.45;;;852.15;;
73697;SDS011;62004;42.566;23.164;2023-04-01T13:29:18;929.78;;;864.63;;
73697;SDS011;62004;42.566;23.164;2023-04-01T13:34:16;916.80;;;851.90;;
73697;SDS011;62004;42.566;23.164;2023-04-01T13:36:48;906.78;;;842.33;;
73697;SDS011;62004;42.566;23.164;2023-04-01T13:44:34;915.45;;;849.63;;
73697;SDS011;62004;42.566;23.164;2023-04-01T13:47:17;934.53;;;865.85;;
73697;SDS011;62004;42.566;23.164;2023-04-01T14:15:52;928.35;;;859.70;;
73697;SDS011;62004;42.566;23.164;2023-04-01T14:33:29;938.42;;;867.78;;
73697;SDS011;62004;42.566;23.164;2023-04-01T14:38:34;938.20;;;868.83;;
73697;SDS011;62004;42.566;23.164;2023-04-01T14:48:51;940.97;;;871.08;;
73697;SDS011;62004;42.566;23.164;2023-04-01T14:51:38;933.00;;;863.83;;
73697;SDS011;62004;42.566;23.164;2023-04-01T14:54:08;939.53;;;870.08;;
73697;SDS011;62004;42.566;23.164;2023-04-01T14:59:04;933.07;;;864.50;;
73697;SDS011;62004;42.566;23.164;2023-04-01T15:04:24;938.28;;;870.13;;
73697;SDS011;62004;42.566;23.164;2023-04-01T15:07:02;927.30;;;860.47;;
73697;SDS011;62004;42.566;23.164;2023-04-01T15:09:41;934.80;;;866.33;;
73697;SDS011;62004;42.566;23.164;2023-04-01T15:25:26;932.40;;;864.00;;
73697;SDS011;62004;42.566;23.164;2023-04-01T15:30:44;921.30;;;852.58;;
73697;SDS011;62004;42.566;23.164;2023-04-01T15:33:17;934.70;;;866.03;;
73697;SDS011;62004;42.566;23.164;2023-04-01T15:38:31;924.92;;;856.72;;
73697;SDS011;62004;42.566;23.164;2023-04-01T15:43:43;949.83;;;878.30;;
73697;SDS011;62004;42.566;23.164;2023-04-01T16:03:30;928.13;;;861.40;;
73697;SDS011;62004;42.566;23.164;2023-04-01T16:11:08;913.33;;;853.05;;
73697;SDS011;62004;42.566;23.164;2023-04-01T16:16:35;911.72;;;852.25;;
73697;SDS011;62004;42.566;23.164;2023-04-01T16:19:27;883.47;;;827.55;;
73697;SDS011;62004;42.566;23.164;2023-04-01T16:21:53;905.58;;;848.03;;
73697;SDS011;62004;42.566;23.164;2023-04-01T16:26:48;901.40;;;845.27;;
73697;SDS011;62004;42.566;23.164;2023-04-01T16:30:03;895.05;;;840.03;;
73697;SDS011;62004;42.566;23.164;2023-04-01T16:32:11;872.28;;;817.30;;
73697;SDS011;62004;42.566;23.164;2023-04-01T16:37:33;881.17;;;827.17;;
73697;SDS011;62004;42.566;23.164;2023-04-01T16:40:09;890.00;;;835.28;;
73697;SDS011;62004;42.566;23.164;2023-04-01T16:42:40;879.40;;;824.75;;
73697;SDS011;62004;42.566;23.164;2023-04-01T16:47:38;891.47;;;836.33;;
73697;SDS011;62004;42.566;23.164;2023-04-01T16:50:06;904.28;;;847.47;;
73697;SDS011;62004;42.566;23.164;2023-04-01T16:52:43;896.22;;;840.22;;
73697;SDS011;62004;42.566;23.164;2023-04-01T16:55:17;886.28;;;831.78;;
73697;SDS011;62004;42.566;23.164;2023-04-01T17:00:15;890.07;;;835.67;;
73697;SDS011;62004;42.566;23.164;2023-04-01T17:02:58;897.22;;;841.55;;
73697;SDS011;62004;42.566;23.164;2023-04-01T17:06:03;889.75;;;835.17;;
73697;SDS011;62004;42.566;23.164;2023-04-01T17:18:48;891.50;;;837.25;;
73697;SDS011;62004;42.566;23.164;2023-04-01T17:26:32;872.10;;;819.90;;
73697;SDS011;62004;42.566;23.164;2023-04-01T17:31:40;879.65;;;827.17;;
73697;SDS011;62004;42.566;23.164;2023-04-01T17:36:52;880.75;;;826.42;;
73697;SDS011;62004;42.566;23.164;2023-04-01T17:41:51;882.77;;;829.20;;
73697;SDS011;62004;42.566;23.164;2023-04-01T17:49:42;890.88;;;835.78;;
73697;SDS011;62004;42.566;23.164;2023-04-01T17:52:22;883.33;;;829.53;;
73697;SDS011;62004;42.566;23.164;2023-04-01T17:54:56;899.22;;;843.22;;
73697;SDS011;62004;42.566;23.164;2023-04-01T18:00:01;881.30;;;827.40;;
73697;SDS011;62004;42.566;23.164;2023-04-01T18:02:39;898.28;;;842.55;;
73697;SDS011;62004;42.566;23.164;2023-04-01T18:10:25;894.13;;;840.38;;
73697;SDS011;62004;42.566;23.164;2023-04-01T18:15:36;900.55;;;846.30;;
73697;SDS011;62004;42.566;23.164;2023-04-01T18:20:40;870.15;;;818.38;;
73697;SDS011;62004;42.566;23.164;2023-04-01T18:23:19;887.80;;;834.15;;
73697;SDS011;62004;42.566;23.164;2023-04-01T18:25:46;882.35;;;828.65;;
73697;SDS011;62004;42.566;23.164;2023-04-01T18:28:18;864.53;;;811.88;;
73697;SDS011;62004;42.566;23.164;2023-04-01T18:30:50;895.33;;;840.80;;
73697;SDS011;62004;42.566;23.164;2023-04-01T18:40:50;901.30;;;846.97;;
73697;SDS011;62004;42.566;23.164;2023-04-01T18:45:50;895.20;;;840.55;;
73697;SDS011;62004;42.566;23.164;2023-04-01T18:51:20;881.72;;;829.33;;
73697;SDS011;62004;42.566;23.164;2023-04-01T18:56:36;882.88;;;829.95;;
73697;SDS011;62004;42.566;23.164;2023-04-01T19:01:39;905.97;;;850.70;;
73697;SDS011;62004;42.566;23.164;2023-04-01T19:04:28;893.90;;;838.80;;
73697;SDS011;62004;42.566;23.164;2023-04-01T19:06:56;887.53;;;833.58;;
73697;SDS011;62004;42.566;23.164;2023-04-01T19:25:35;895.15;;;840.38;;
73697;SDS011;62004;42.566;23.164;2023-04-01T19:33:22;901.08;;;846.08;;
73697;SDS011;62004;42.566;23.164;2023-04-01T19:44:20;875.17;;;822.70;;
73697;SDS011;62004;42.566;23.164;2023-04-01T19:46:42;877.38;;;825.13;;
73697;SDS011;62004;42.566;23.164;2023-04-01T19:51:39;898.90;;;844.37;;
73697;SDS011;62004;42.566;23.164;2023-04-01T19:54:25;886.42;;;832.83;;
73697;SDS011;62004;42.566;23.164;2023-04-01T20:02:43;871.92;;;820.10;;
73697;SDS011;62004;42.566;23.164;2023-04-01T20:06:11;883.47;;;830.47;;
73697;SDS011;62004;42.566;23.164;2023-04-01T20:10:52;879.05;;;826.70;;
73697;SDS011;62004;42.566;23.164;2023-04-01T20:15:47;866.23;;;815.17;;
73697;SDS011;62004;42.566;23.164;2023-04-01T20:18:32;853.97;;;803.38;;
73697;SDS011;62004;42.566;23.164;2023-04-01T20:26:20;875.40;;;822.38;;
73697;SDS011;62004;42.566;23.164;2023-04-01T20:42:00;872.60;;;819.83;;
73697;SDS011;62004;42.566;23.164;2023-04-01T20:52:36;876.40;;;822.78;;
73697;SDS011;62004;42.566;23.164;2023-04-01T20:55:13;858.08;;;806.88;;
73697;SDS011;62004;42.566;23.164;2023-04-01T20:57:45;866.00;;;814.67;;
73697;SDS011;62004;42.566;23.164;2023-04-01T21:12:55;837.03;;;784.63;;
73697;SDS011;62004;42.566;23.164;2023-04-01T21:20:22;797.90;;;741.22;;
73697;SDS011;62004;42.566;23.164;2023-04-01T21:23:16;791.90;;;737.55;;
73697;SDS011;62004;42.566;23.164;2023-04-01T21:28:42;831.80;;;782.47;;
73697;SDS011;62004;42.566;23.164;2023-04-01T21:51:36;860.53;;;808.45;;
73697;SDS011;62004;42.566;23.164;2023-04-01T21:54:22;843.63;;;791.60;;
73697;SDS011;62004;42.566;23.164;2023-04-01T21:57:08;840.33;;;791.15;;
73697;SDS011;62004;42.566;23.164;2023-04-01T22:02:25;875.33;;;823.53;;
73697;SDS011;62004;42.566;23.164;2023-04-01T22:16:26;836.47;;;783.83;;
73697;SDS011;62004;42.566;23.164;2023-04-01T22:18:34;846.13;;;793.40;;
73697;SDS011;62004;42.566;23.164;2023-04-01T22:21:04;840.45;;;789.92;;
73697;SDS011;62004;42.566;23.164;2023-04-01T22:26:15;843.92;;;791.45;;
73697;SDS011;62004;42.566;23.164;2023-04-01T22:39:40;834.23;;;783.67;;
73697;SDS011;62004;42.566;23.164;2023-04-01T22:50:25;777.97;;;726.10;;
73697;SDS011;62004;42.566;23.164;2023-04-01T22:53:01;772.72;;;721.42;;
73697;SDS011;62004;42.566;23.164;2023-04-01T22:55:29;761.30;;;712.67;;
73697;SDS011;62004;42.566;23.164;2023-04-01T22:58:00;776.92;;;727.25;;
73697;SDS011;62004;42.566;23.164;2023-04-01T23:00:28;793.72;;;743.28;;
73697;SDS011;62004;42.566;23.164;2023-04-01T23:03:04;762.45;;;713.00;;
73697;SDS011;62004;42.566;23.164;2023-04-01T23:10:30;779.03;;;730.78;;
73697;SDS011;62004;42.566;23.164;2023-04-01T23:13:04;812.40;;;763.63;;
73697;SDS011;62004;42.566;23.164;2023-04-01T23:15:30;808.20;;;761.05;;
73697;SDS011;62004;42.566;23.164;2023-04-01T23:20:35;795.63;;;746.33;;
73697;SDS011;62004;42.566;23.164;2023-04-01T23:25:43;808.33;;;761.93;;
73697;SDS011;62004;42.566;23.164;2023-04-01T23:28:23;810.63;;;759.17;;
73697;SDS011;62004;42.566;23.164;2023-04-01T23:30:50;796.92;;;747.38;;
73697;SDS011;62004;42.566;23.164;2023-04-01T23:38:13;760.07;;;706.87;;
73697;SDS011;62004;42.566;23.164;2023-04-01T23:40:39;764.47;;;716.25;;
73697;SDS011;62004;42.566;23.164;2023-04-01T23:43:12;805.88;;;758.80;;
73697;SDS011;62004;42.566;23.164;2023-04-01T23:45:38;740.47;;;691.47;;
73697;SDS011;62004;42.566;23.164;2023-04-01T23:48:05;749.38;;;702.08;;
73697;SDS011;62004;42.566;23.164;2023-04-01T23:50:31;762.55;;;712.17;;
73697;SDS011;62004;42.566;23.164;2023-04-01T23:53:03;700.80;;;653.90;;
73697;SDS011;62004;42.566;23.164;2023-04-01T23:55:32;706.97;;;660.75;;
